アタテュルク国際空港(イスタンブル)の過去48時間の天気

アタテュルク国際空港(イスタンブル) (Istanbul / Ataturk)

現在時刻: 9/16 06:08 +03 (9/16 03:08 UTC) 以下の時間は現地時間です。

過去48時間のMETAR気象情報
時間 風向 風速(m/s) 視程 気温(℃) 湿度(%) 気圧(hPa) 天気現象
16 05:50 3 10km以上 18 77 1019
16 05:20 3 10km以上 17 77 1019
16 04:50 3 10km以上 17 77 1019
16 04:20 3 10km以上 17 77 1019
16 03:50 不定 1 10km以上 19 68 1019
16 03:20 北東 2 10km以上 20 68 1020
16 02:50 3 10km以上 18 73 1020
16 02:20 4 10km以上 19 68 1020
16 01:50 3 10km以上 19 68 1020
16 01:20 4 10km以上 20 68 1021
16 00:50 北北東 4 10km以上 20 68 1021
16 00:20 北北東 4 10km以上 21 64 1021
15 23:50 北北東 4 10km以上 21 60 1021
15 23:20 北北東 4 10km以上 21 60 1022
15 22:50 北北東 4 10km以上 21 60 1022
15 22:20 北北東 4 10km以上 21 60 1022
15 21:50 北北東 5 10km以上 21 60 1022
15 21:20 北北東 5 10km以上 21 60 1022
15 20:50 北北東 6 10km以上 21 60 1022
15 20:20 北北東 7 10km以上 22 57 1022
15 19:50 北北東 8 10km以上 22 57 1022
15 19:20 北北東 8 10km以上 22 57 1022
15 18:50 北北東 8 10km以上 23 53 1022
15 18:20 北北東 9 10km以上 23 53 1022
15 17:50 北北東 9 10km以上 24 54 1022
15 17:20 北東 9 10km以上 24 57 1022
15 16:50 北北東 10 10km以上 24 57 1022
15 16:20 11 10km以上 25 57 1022
15 15:50 北北東 10 10km以上 25 57 1022
15 15:20 北北東 9 10km以上 25 61 1022
15 14:50 北北東 10 10km以上 25 57 1022
15 14:20 北北東 9 10km以上 26 54 1022
15 13:50 北北東 10 10km以上 26 51 1022
15 13:20 北北東 10 10km以上 26 54 1023
15 12:50 北北東 8 10km以上 26 54 1022
15 12:20 北東 8 10km以上 26 54 1022
15 11:50 北東 7 10km以上 25 57 1022
15 11:20 北北東 9 10km以上 25 57 1023
15 10:50 北北東 9 10km以上 25 54 1022
15 10:20 北東 7 10km以上 25 57 1022
15 09:50 北東 7 10km以上 24 65 1022
15 09:20 北東 7 10km以上 24 61 1022
15 08:50 北東 4 10km以上 23 69 1022
15 08:20 北北東 4 10km以上 23 69 1022
15 07:50 北北東 3 10km以上 23 69 1022
15 07:20 北北東 3 10km以上 22 73 1022
15 06:50 北北東 4 10km以上 22 73 1022
15 06:20 北北東 5 10km以上 22 73 1021
15 05:50 北北東 4 10km以上 22 73 1021
15 05:20 北北東 5 10km以上 22 69 1021
15 04:50 5 10km以上 22 69 1021
15 04:20 北北東 5 10km以上 22 65 1021
15 03:50 北北東 4 10km以上 22 65 1021
15 03:20 4 10km以上 21 64 1021
15 02:50 4 10km以上 22 65 1021
15 02:20 北北東 3 10km以上 22 65 1021
15 01:50 3 10km以上 22 65 1021
15 01:20 3 10km以上 22 65 1021
15 00:50 北北東 4 10km以上 22 65 1021
15 00:20 北東 4 10km以上 23 61 1021
14 23:50 北東 4 10km以上 23 61 1021
14 23:20 北東 4 10km以上 23 61 1022
14 22:50 北東 5 10km以上 23 61 1021
14 22:20 北東 5 10km以上 23 57 1021
LTBA 160250Z 01005KT CAVOK 18/14 Q1019 NOSIG RMK RWY17L 02006KT RWY05 36005KT RWY23 04006KT
LTBA 160220Z 01006KT CAVOK 17/13 Q1019 NOSIG RMK RWY17L 36005KT RWY05 36006KT RWY23 36004KT
LTBA 160150Z 35006KT CAVOK 17/13 Q1019 NOSIG RMK RWY17L 35004KT RWY05 35004KT RWY23 01004KT
LTBA 160120Z 35005KT CAVOK 17/13 Q1019 NOSIG RMK RWY17L 35003KT RWY05 35003KT 320V030 RWY23 02005KT
LTBA 160050Z VRB02KT CAVOK 19/13 Q1019 NOSIG RMK RWY17L 00000KT RWY05 03005KT RWY23 04004KT
LTBA 160020Z 04003KT 010V070 CAVOK 20/14 Q1020 NOSIG RMK RWY17L 02004KT 350V060 RWY05 04003KT RWY23 08003KT 030V120
LTBA 152350Z 36005KT CAVOK 18/13 Q1020 NOSIG RMK RWY17L 01005KT RWY05 36005KT RWY23 02006KT
LTBA 152320Z 36007KT CAVOK 19/13 Q1020 NOSIG RMK RWY17L 34005KT RWY05 34005KT RWY23 01006KT 340V040
LTBA 152250Z 36006KT CAVOK 19/13 Q1020 NOSIG RMK RWY17L 36007KT RWY05 36006KT RWY23 02006KT
LTBA 152220Z 01007KT CAVOK 20/14 Q1021 NOSIG RMK RWY17L 02007KT RWY05 01007KT RWY23 03007KT
LTBA 152150Z 02008KT CAVOK 20/14 Q1021 NOSIG RMK RWY17L 03005KT RWY05 02008KT RWY23 04007KT
LTBA 152120Z 02007KT CAVOK 21/14 Q1021 NOSIG RMK RWY17L 02006KT RWY05 02009KT RWY23 04006KT 010V070
LTBA 152050Z 02008KT CAVOK 21/13 Q1021 NOSIG RMK RWY17L 02008KT RWY05 02009KT RWY23 04008KT
LTBA 152020Z 03008KT CAVOK 21/13 Q1022 NOSIG RMK RWY17L 03008KT RWY05 02009KT RWY23 04008KT
LTBA 151950Z 03008KT CAVOK 21/13 Q1022 NOSIG RMK RWY17L 03009KT RWY05 02008KT RWY23 05008KT
LTBA 151920Z 03008KT CAVOK 21/13 Q1022 NOSIG RMK RWY17L 03009KT 360V070 RWY05 02008KT RWY23 05007KT
LTBA 151850Z 03009KT 350V060 CAVOK 21/13 Q1022 NOSIG RMK RWY17L 03010KT RWY05 02009KT RWY23 05007KT
LTBA 151820Z 03010KT 350V050 CAVOK 21/13 Q1022 NOSIG RMK RWY17L 03010KT 350V060 RWY05 02012KT RWY23 04009KT
LTBA 151750Z 03011KT CAVOK 21/13 Q1022 NOSIG RMK RWY17L 02010KT 350V070 RWY05 02012KT RWY23 04012KT
LTBA 151720Z 02014KT CAVOK 22/13 Q1022 NOSIG RMK RWY17L 02013KT RWY05 01014KT RWY23 03014KT 360V090
LTBA 151650Z 02015KT CAVOK 22/13 Q1022 NOSIG RMK RWY17L 03014KT RWY05 01015KT RWY23 03013KT
LTBA 151620Z 02015KT 9999 FEW040 22/13 Q1022 NOSIG RMK RWY17L 03014KT RWY05 02015KT RWY23 04014KT
LTBA 151550Z 03016KT 9999 FEW035 23/13 Q1022 NOSIG RMK RWY17L 03017KT RWY05 01017KT RWY23 03018KT
LTBA 151520Z 02018KT 9999 FEW035 23/13 Q1022 NOSIG RMK RWY17L 03017KT 360V060 RWY05 02020KT RWY23 03019G29KT 360V060
LTBA 151450Z 03017KT 9999 SCT035 24/14 Q1022 NOSIG RMK RWY17L 03018KT RWY05 02022KT RWY23 03022KT
LTBA 151420Z 04017KT 9999 SCT035 24/15 Q1022 NOSIG RMK RWY17L 01019KT 340V050 RWY05 01018KT RWY23 03019KT
LTBA 151350Z 02019KT 9999 SCT035 24/15 Q1022 NOSIG RMK RWY17L 02019KT RWY05 36019KT RWY23 04019KT
LTBA 151320Z 01021KT 9999 SCT035 25/16 Q1022 NOSIG RMK RWY17L 01019KT RWY05 36020KT RWY23 03021KT
LTBA 151250Z 02020KT 9999 SCT035 25/16 Q1022 NOSIG RMK RWY17L 01019KT RWY05 01019KT 340V040 RWY23 03019G29KT
LTBA 151220Z 03017KT 9999 SCT035 25/17 Q1022 NOSIG RMK RWY17L 03018KT RWY05 01020KT RWY23 03018KT 360V060
LTBA 151150Z 02019KT 9999 BKN035 25/16 Q1022 NOSIG RMK RWY17L 02018KT RWY05 01018KT 330V030 RWY23 02019KT 360V060
LTBA 151120Z 02018G28KT 9999 BKN035 26/16 Q1022 NOSIG RMK RWY17L 02018KT 340V050 RWY05 36021KT 330V030 RWY23 03018G28KT 360V060
LTBA 151050Z 02019G30KT 9999 SCT035 26/15 Q1022 NOSIG RMK RWY17L 02018KT RWY05 01021KT RWY23 03021KT
LTBA 151020Z 02020KT 360V060 9999 BKN035 26/16 Q1023 NOSIG RMK RWY17L 02018KT RWY05 01024KT RWY23 03020KT
LTBA 150950Z 02016KT 350V060 9999 BKN035 26/16 Q1022 NOSIG RMK RWY17L 03019KT 360V060 RWY05 01017KT RWY23 05018KT 020V080
LTBA 150920Z 04015KT 360V070 9999 BKN035 26/16 Q1022 NOSIG RMK RWY17L 04016G26KT 360V060 RWY05 02018KT RWY23 05017KT 010V080
LTBA 150850Z 04014KT 010V070 9999 BKN035 25/16 Q1022 NOSIG RMK RWY17L 04016KT 010V070 RWY05 03018KT RWY23 05018KT
LTBA 150820Z 02018KT 360V060 9999 BKN035 BKN100 25/16 Q1023 NOSIG RMK RWY17L 02016KT 360V060 RWY05 01018KT RWY23 04015KT
LTBA 150750Z 03018KT 360V060 9999 BKN035 BKN100 25/15 Q1022 NOSIG RMK RWY17L 04015KT 010V070 RWY05 01018KT RWY23 02019KT
LTBA 150720Z 04013KT 360V070 9999 BKN035 BKN100 25/16 Q1022 NOSIG RMK RWY17L 04014G24KT 360V070 RWY05 03018KT 350V050 RWY23 05016KT 030V090
LTBA 150650Z 04014KT 360V080 9999 BKN035 BKN100 24/17 Q1022 NOSIG RMK RWY17L 03016KT RWY05 02016G27KT RWY23 03015G25KT 360V080
LTBA 150620Z 04014KT 360V060 9999 BKN035 BKN100 24/16 Q1022 NOSIG RMK RWY17L 04015KT 350V070 RWY05 02017KT RWY23 05016KT 020V080
LTBA 150550Z 04008KT 360V100 9999 BKN035 BKN100 23/17 Q1022 NOSIG RMK RWY17L 04011KT RWY05 02010KT RWY23 05010KT
LTBA 150520Z 03008KT 360V070 9999 BKN030 BKN080 23/17 Q1022 NOSIG RMK RWY17L 03010KT RWY05 01008KT RWY23 04009KT
LTBA 150450Z 03006KT 9999 SCT035 SCT100 23/17 Q1022 NOSIG RMK RWY17L 02007KT RWY05 03007KT RWY23 05006KT
LTBA 150420Z 03006KT 9999 SCT030 22/17 Q1022 NOSIG RMK RWY17L 04007KT RWY05 02008KT RWY23 04007KT
LTBA 150350Z 03007KT 9999 FEW030 22/17 Q1022 NOSIG RMK RWY17L 02008KT RWY05 01009KT RWY23 03008KT
LTBA 150320Z 02009KT 9999 FEW030 22/17 Q1021 NOSIG RMK RWY17L 02009KT RWY05 36010KT RWY23 03010KT 360V090
LTBA 150250Z 02008KT CAVOK 22/17 Q1021 NOSIG RMK RWY17L 02010KT RWY05 01009KT RWY23 03010KT
LTBA 150220Z 02010KT CAVOK 22/16 Q1021 NOSIG RMK RWY17L 02010KT RWY05 01010KT RWY23 04008KT
LTBA 150150Z 01009KT CAVOK 22/16 Q1021 NOSIG RMK RWY17L 02010KT RWY05 01011KT RWY23 03010KT 360V070
LTBA 150120Z 02009KT CAVOK 22/15 Q1021 NOSIG RMK RWY17L 02010KT RWY05 36009KT RWY23 03009KT
LTBA 150050Z 02008KT 360V070 CAVOK 22/15 Q1021 NOSIG RMK RWY17L 02007KT RWY05 36008KT RWY23 02009KT 360V090
LTBA 150020Z 01007KT CAVOK 21/14 Q1021 NOSIG RMK RWY17L 02007KT RWY05 36007KT 320V030 RWY23 02007KT 360V070
LTBA 142350Z 01008KT CAVOK 22/15 Q1021 NOSIG RMK RWY17L 02006KT RWY05 35007KT RWY23 02007G17KT 350V080
LTBA 142320Z 02006KT CAVOK 22/15 Q1021 NOSIG RMK RWY17L 03005KT RWY05 01006KT RWY23 03006KT
LTBA 142250Z 01006KT CAVOK 22/15 Q1021 NOSIG RMK RWY17L 02004KT RWY05 36006KT RWY23 02006KT
LTBA 142220Z 01006KT CAVOK 22/15 Q1021 NOSIG RMK RWY17L 03003KT RWY05 36006KT RWY23 02006KT
LTBA 142150Z 02007KT 350V050 CAVOK 22/15 Q1021 NOSIG RMK RWY17L 36006KT RWY05 01010KT RWY23 04009KT
LTBA 142120Z 04008KT 010V070 CAVOK 23/15 Q1021 NOSIG RMK RWY17L 04004KT RWY05 03007KT RWY23 05007KT
LTBA 142050Z 04008KT CAVOK 23/15 Q1021 NOSIG RMK RWY17L 05008KT RWY05 03009KT RWY23 05009KT
LTBA 142020Z 04007KT CAVOK 23/15 Q1022 NOSIG RMK RWY17L 04009KT RWY05 03009KT RWY23 06009KT
LTBA 141950Z 05009KT CAVOK 23/15 Q1021 NOSIG RMK RWY17L 05011KT RWY05 04010KT RWY23 06010KT
LTBA 141920Z 05010KT CAVOK 23/14 Q1021 NOSIG RMK RWY17L 05008KT 020V080 RWY05 04010KT RWY23 07011KT